^^
Grace C. Lehan Memorial Weather Station Historical Data
Daily Summary for March 6, 2022 Units:  Both    English   Metric
Daily Weekly Monthly Yearly
  High: Low: Average:
Temperature: 55.2 °F /  12.9 °C 33.9 °F /  1.1 °C 44.8 °F /  7.1 °C
Dew Point: 53 °F /  11.7 °C 31 °F /  -0.6 °C 42.1 °F /  5.6 °C
Humidity: 95% 87.2% 90%
Wind Speed: 2.7mph /  4.3km/h - 0.2mph /  0.3km/h
Wind Gust: 11mph /  17.7km/h - -
Wind- - South
Pressure: 30.35 in /  1027.7 hPa 30.25 in /  1024.3 hPa -
Precipitation: 0.17 in /  4.32 mm    
 
 
Tabular Data for March 6, 2022
Time Temperature Dew Point Pressure Wind Wind Speed Wind Gust Humidity Rainfall Rate (Hourly) solar
00:04 34 °F /  1.1 °C 31.2 °F /  -0.4 °C 30.31in /  1026.3hPa Calm     89% 0.00in /  0mm 0 W/m2
00:09 33.9 °F /  1.1 °C 31 °F /  -0.6 °C 30.31in /  1026.3hPa Calm     89% 0.00in /  0mm 0 W/m2
00:14 33.9 °F /  1.1 °C 31 °F /  -0.6 °C 30.31in /  1026.3hPa Calm     89% 0.00in /  0mm 0 W/m2
00:19 33.9 °F /  1.1 °C 31 °F /  -0.6 °C 30.30in /  1026hPa Calm     89.1% 0.00in /  0mm 0 W/m2
00:24 33.9 °F /  1.1 °C 31.3 °F /  -0.4 °C 30.30in /  1026hPa Calm     90% 0.00in /  0mm 0 W/m2
00:29 34 °F /  1.1 °C 31.3 °F /  -0.4 °C 30.31in /  1026.3hPa Calm     90% 0.00in /  0mm 0 W/m2
00:34 34 °F /  1.1 °C 31.4 °F /  -0.3 °C 30.31in /  1026.3hPa Calm     90% 0.00in /  0mm 0 W/m2
00:39 34.1 °F /  1.2 °C 31.5 °F /  -0.3 °C 30.31in /  1026.3hPa Calm     90% 0.00in /  0mm 0 W/m2
00:44 34.2 °F /  1.2 °C 31.6 °F /  -0.2 °C 30.31in /  1026.3hPa Calm     90% 0.00in /  0mm 0 W/m2
00:49 34.3 °F /  1.3 °C 31.7 °F /  -0.2 °C 30.32in /  1026.6hPa Calm     90% 0.00in /  0mm 0 W/m2
00:54 34.4 °F /  1.3 °C 31.8 °F /  -0.1 °C 30.32in /  1026.6hPa Calm     90% 0.00in /  0mm 0 W/m2
00:59 34.4 °F /  1.3 °C 31.8 °F /  -0.1 °C 30.33in /  1027hPa Calm     90% 0.00in /  0mm 0 W/m2
01:04 34.4 °F /  1.3 °C 31.8 °F /  -0.1 °C 30.32in /  1026.6hPa Calm     90% 0.00in /  0mm 0 W/m2
01:09 34.4 °F /  1.3 °C 31.8 °F /  -0.1 °C 30.32in /  1026.6hPa Calm     90% 0.00in /  0mm 0 W/m2
01:14 34.5 °F /  1.4 °C 32.1 °F /  0.1 °C 30.32in /  1026.6hPa Calm     90.7% 0.00in /  0mm 0 W/m2
01:19 34.6 °F /  1.4 °C 32 °F /  0 °C 30.33in /  1027hPa Calm     90% 0.00in /  0mm 0 W/m2
01:24 34.6 °F /  1.4 °C 32 °F /  0 °C 30.33in /  1027hPa Calm     90% 0.00in /  0mm 0 W/m2
01:29 34.7 °F /  1.5 °C 32 °F /  0 °C 30.33in /  1027hPa Calm     90% 0.00in /  0mm 0 W/m2
01:34 34.7 °F /  1.5 °C 32 °F /  0 °C 30.33in /  1027hPa Calm     90% 0.00in /  0mm 0 W/m2
01:39 34.6 °F /  1.4 °C 32 °F /  0 °C 30.33in /  1027hPa Calm     90% 0.00in /  0mm 0 W/m2
01:44 34.6 °F /  1.4 °C 32 °F /  0 °C 30.33in /  1027hPa Calm     90% 0.00in /  0mm 0 W/m2
01:49 34.6 °F /  1.4 °C 32 °F /  0 °C 30.33in /  1027hPa Calm     90% 0.00in /  0mm 0 W/m2
01:54 34.6 °F /  1.4 °C 32 °F /  0 °C 30.33in /  1027hPa Calm     90% 0.00in /  0mm 0 W/m2
01:59 34.6 °F /  1.4 °C 32 °F /  0 °C 30.33in /  1027hPa Calm     90% 0.00in /  0mm 0 W/m2
02:04 34.6 °F /  1.4 °C 32 °F /  0 °C 30.33in /  1027hPa Calm     90% 0.00in /  0mm 0 W/m2
02:09 34.6 °F /  1.4 °C 32 °F /  0 °C 30.34in /  1027.3hPa Calm     90% 0.00in /  0mm 0 W/m2
02:14 34.6 °F /  1.4 °C 32 °F /  0 °C 30.34in /  1027.3hPa Calm     90% 0.00in /  0mm 0 W/m2
02:19 34.6 °F /  1.4 °C 32.1 °F /  0.1 °C 30.34in /  1027.3hPa Calm     90.4% 0.00in /  0mm 0 W/m2
02:24 34.7 °F /  1.5 °C 32.3 °F /  0.2 °C 30.34in /  1027.3hPa Calm     91% 0.00in /  0mm 0 W/m2
02:29 34.8 °F /  1.6 °C 32.4 °F /  0.2 °C 30.34in /  1027.3hPa Calm     91% 0.00in /  0mm 0 W/m2
02:34 34.8 °F /  1.6 °C 32.5 °F /  0.3 °C 30.34in /  1027.3hPa Calm     91% 0.00in /  0mm 0 W/m2
02:39 34.9 °F /  1.6 °C 32.5 °F /  0.3 °C 30.34in /  1027.3hPa Calm     91% 0.00in /  0mm 0 W/m2
02:44 35 °F /  1.7 °C 32.6 °F /  0.3 °C 30.34in /  1027.3hPa Calm     91% 0.00in /  0mm 0 W/m2
02:49 35 °F /  1.7 °C 32.7 °F /  0.4 °C 30.34in /  1027.3hPa Calm   1mph /  1.6km/h 91% 0.00in /  0mm 0 W/m2
02:54 35.1 °F /  1.7 °C 32.7 °F /  0.4 °C 30.34in /  1027.3hPa Calm   1mph /  1.6km/h 90.8% 0.00in /  0mm 0 W/m2
02:59 35.1 °F /  1.7 °C 32.5 °F /  0.3 °C 30.33in /  1027hPa Calm   1mph /  1.6km/h 90% 0.00in /  0mm 0 W/m2
03:04 35.1 °F /  1.7 °C 32.5 °F /  0.3 °C 30.33in /  1027hPa Calm   1mph /  1.6km/h 90% 0.00in /  0mm 0 W/m2
03:09 35.1 °F /  1.7 °C 32.5 °F /  0.3 °C 30.33in /  1027hPa Calm     90% 0.00in /  0mm 0 W/m2
03:14 35.1 °F /  1.7 °C 32.5 °F /  0.3 °C 30.33in /  1027hPa Calm     90% 0.00in /  0mm 0 W/m2
03:19 35.1 °F /  1.7 °C 32.5 °F /  0.3 °C 30.33in /  1027hPa Calm     90% 0.00in /  0mm 0 W/m2
03:24 35 °F /  1.7 °C 32.4 °F /  0.2 °C 30.33in /  1027hPa Calm     90% 0.00in /  0mm 0 W/m2
03:29 35 °F /  1.7 °C 32.1 °F /  0.1 °C 30.34in /  1027.3hPa Calm     89.1% 0.00in /  0mm 0 W/m2
03:34 35 °F /  1.7 °C 32 °F /  0 °C 30.33in /  1027hPa Calm     89% 0.00in /  0mm 0 W/m2
03:39 34.9 °F /  1.6 °C 32 °F /  0 °C 30.33in /  1027hPa Calm     89% 0.00in /  0mm 0 W/m2
03:44 34.8 °F /  1.6 °C 31.9 °F /  -0.1 °C 30.33in /  1027hPa Calm     89% 0.00in /  0mm 0 W/m2
03:49 34.8 °F /  1.6 °C 31.9 °F /  -0.1 °C 30.33in /  1027hPa Calm     89% 0.00in /  0mm 0 W/m2
03:54 34.7 °F /  1.5 °C 31.8 °F /  -0.1 °C 30.33in /  1027hPa Calm     89% 0.00in /  0mm 0 W/m2
03:59 34.7 °F /  1.5 °C 31.8 °F /  -0.1 °C 30.33in /  1027hPa Calm     89% 0.00in /  0mm 0 W/m2
04:04 34.6 °F /  1.4 °C 31.7 °F /  -0.2 °C 30.34in /  1027.3hPa Calm     89% 0.00in /  0mm 0 W/m2
04:09 34.6 °F /  1.4 °C 31.7 °F /  -0.2 °C 30.34in /  1027.3hPa Calm     89% 0.00in /  0mm 0 W/m2
04:14 34.6 °F /  1.4 °C 31.7 °F /  -0.2 °C 30.33in /  1027hPa Calm     89.1% 0.00in /  0mm 0 W/m2
04:19 34.6 °F /  1.4 °C 32 °F /  0 °C 30.33in /  1027hPa Calm     90% 0.00in /  0mm 0 W/m2
04:24 34.6 °F /  1.4 °C 32 °F /  0 °C 30.34in /  1027.3hPa Calm     90% 0.00in /  0mm 0 W/m2
04:29 34.7 °F /  1.5 °C 32.1 °F /  0.1 °C 30.33in /  1027hPa Calm     90% 0.00in /  0mm 0 W/m2
04:34 34.8 °F /  1.6 °C 32.2 °F /  0.1 °C 30.34in /  1027.3hPa Calm     90% 0.00in /  0mm 0 W/m2
04:39 34.9 °F /  1.6 °C 32.3 °F /  0.2 °C 30.34in /  1027.3hPa Calm     90% 0.00in /  0mm 0 W/m2
04:44 35 °F /  1.7 °C 32.4 °F /  0.2 °C 30.33in /  1027hPa Calm     90% 0.00in /  0mm 0 W/m2
04:49 35.1 °F /  1.7 °C 32.4 °F /  0.2 °C 30.33in /  1027hPa Calm     90% 0.00in /  0mm 0 W/m2
04:54 35.2 °F /  1.8 °C 32.8 °F /  0.4 °C 30.33in /  1027hPa Calm     91% 0.00in /  0mm 0 W/m2
04:59 35.3 °F /  1.8 °C 32.9 °F /  0.5 °C 30.33in /  1027hPa Calm     91% 0.00in /  0mm 0 W/m2
05:04 35.4 °F /  1.9 °C 32.9 °F /  0.5 °C 30.34in /  1027.3hPa Calm     90.5% 0.00in /  0mm 0 W/m2
05:09 35.5 °F /  1.9 °C 32.9 °F /  0.5 °C 30.34in /  1027.3hPa Calm     90% 0.00in /  0mm 0 W/m2
05:14 35.5 °F /  1.9 °C 32.9 °F /  0.5 °C 30.33in /  1027hPa Calm     90% 0.00in /  0mm 0 W/m2
05:19 35.5 °F /  1.9 °C 32.9 °F /  0.5 °C 30.34in /  1027.3hPa Calm     90% 0.00in /  0mm 0 W/m2
05:24 35.6 °F /  2 °C 32.9 °F /  0.5 °C 30.34in /  1027.3hPa Calm     90% 0.00in /  0mm 0 W/m2
05:29 35.6 °F /  2 °C 33 °F /  0.6 °C 30.34in /  1027.3hPa Calm     90% 0.00in /  0mm 0 W/m2
05:34 35.6 °F /  2 °C 33 °F /  0.6 °C 30.34in /  1027.3hPa Calm     90% 0.00in /  0mm 0 W/m2
05:39 35.6 °F /  2 °C 33 °F /  0.6 °C 30.34in /  1027.3hPa Calm     90% 0.00in /  0mm 0 W/m2
05:44 35.6 °F /  2 °C 33 °F /  0.6 °C 30.33in /  1027hPa Calm     90% 0.00in /  0mm 0 W/m2
05:49 35.6 °F /  2 °C 33 °F /  0.6 °C 30.34in /  1027.3hPa Calm     90% 0.00in /  0mm 0 W/m2
05:54 35.5 °F /  1.9 °C 32.9 °F /  0.5 °C 30.34in /  1027.3hPa Calm     90% 0.00in /  0mm 0 W/m2
05:59 35.5 °F /  1.9 °C 32.9 °F /  0.5 °C 30.34in /  1027.3hPa Calm     90% 0.00in /  0mm 0 W/m2
06:04 35.5 °F /  1.9 °C 32.9 °F /  0.5 °C 30.34in /  1027.3hPa Calm     90% 0.00in /  0mm 0 W/m2
06:09 35.5 °F /  1.9 °C 32.9 °F /  0.5 °C 30.35in /  1027.7hPa Calm     90% 0.00in /  0mm 0 W/m2
06:14 35.5 °F /  1.9 °C 32.8 °F /  0.4 °C 30.35in /  1027.7hPa Calm     90% 0.00in /  0mm 0 W/m2
06:19 35.4 °F /  1.9 °C 32.8 °F /  0.4 °C 30.35in /  1027.7hPa Calm     90% 0.00in /  0mm 0 W/m2
06:24 35.4 °F /  1.9 °C 32.7 °F /  0.4 °C 30.35in /  1027.7hPa Calm     90% 0.00in /  0mm 0 W/m2
06:29 35.3 °F /  1.8 °C 32.7 °F /  0.4 °C 30.35in /  1027.7hPa Calm     90% 0.00in /  0mm 0 W/m2
06:34 35.3 °F /  1.8 °C 32.7 °F /  0.4 °C 30.35in /  1027.7hPa Calm     90% 0.00in /  0mm 0 W/m2
06:39 35.3 °F /  1.8 °C 32.7 °F /  0.4 °C 30.34in /  1027.3hPa Calm     90% 0.00in /  0mm 0 W/m2
06:44 35.3 °F /  1.8 °C 32.7 °F /  0.4 °C 30.34in /  1027.3hPa Calm     90% 0.00in /  0mm 0 W/m2
06:49 35.3 °F /  1.8 °C 32.7 °F /  0.4 °C 30.34in /  1027.3hPa Calm     90% 0.00in /  0mm 0 W/m2
06:54 35.3 °F /  1.8 °C 32.7 °F /  0.4 °C 30.34in /  1027.3hPa Calm     90% 0.00in /  0mm 0 W/m2
06:59 35.3 °F /  1.8 °C 32.7 °F /  0.4 °C 30.34in /  1027.3hPa Calm     90% 0.00in /  0mm 0 W/m2
07:04 35.3 °F /  1.8 °C 32.6 °F /  0.3 °C 30.34in /  1027.3hPa Calm     90% 0.00in /  0mm 0 W/m2
07:09 35.2 °F /  1.8 °C 32.6 °F /  0.3 °C 30.34in /  1027.3hPa Calm     90% 0.00in /  0mm 0 W/m2
07:14 35.2 °F /  1.8 °C 32.6 °F /  0.3 °C 30.34in /  1027.3hPa Calm     90% 0.00in /  0mm 5 W/m2
07:19 35.2 °F /  1.8 °C 32.6 °F /  0.3 °C 30.34in /  1027.3hPa Calm     90% 0.00in /  0mm 7 W/m2
07:24 35.3 °F /  1.8 °C 32.6 °F /  0.3 °C 30.33in /  1027hPa Calm     90% 0.00in /  0mm 9 W/m2
07:29 35.3 °F /  1.8 °C 32.7 °F /  0.4 °C 30.33in /  1027hPa Calm     90% 0.00in /  0mm 14 W/m2
07:34 35.5 °F /  1.9 °C 32.9 °F /  0.5 °C 30.34in /  1027.3hPa Calm     90.3% 0.00in /  0mm 19 W/m2
07:39 35.6 °F /  2 °C 33.2 °F /  0.7 °C 30.34in /  1027.3hPa Calm     91% 0.00in /  0mm 23 W/m2
07:44 35.8 °F /  2.1 °C 33.4 °F /  0.8 °C 30.34in /  1027.3hPa Calm     91% 0.00in /  0mm 32 W/m2
07:49 35.9 °F /  2.2 °C 33.5 °F /  0.8 °C 30.34in /  1027.3hPa Calm     91% 0.00in /  0mm 35 W/m2
07:54 36 °F /  2.2 °C 33.7 °F /  0.9 °C 30.34in /  1027.3hPa Calm     91% 0.00in /  0mm 44 W/m2
07:59 36.2 °F /  2.3 °C 33.8 °F /  1 °C 30.34in /  1027.3hPa Calm     91% 0.00in /  0mm 47 W/m2
08:00 36.2 °F /  2.3 °C 33.8 °F /  1 °C 30.34in /  1027.3hPa Calm     91% 0.00in /  0mm 47 W/m2
08:09 36.6 °F /  2.6 °C 34.2 °F /  1.2 °C 30.34in /  1027.3hPa Calm     91% 0.00in /  0mm 60 W/m2
08:14 36.8 °F /  2.7 °C 34.4 °F /  1.3 °C 30.34in /  1027.3hPa Calm   1mph /  1.6km/h 91% 0.00in /  0mm 67 W/m2
08:19 37.1 °F /  2.8 °C 34.7 °F /  1.5 °C 30.34in /  1027.3hPa Calm   1mph /  1.6km/h 91% 0.00in /  0mm 69 W/m2
08:24 37.4 °F /  3 °C 35 °F /  1.7 °C 30.34in /  1027.3hPa Calm   1mph /  1.6km/h 91% 0.00in /  0mm 72 W/m2
08:29 37.7 °F /  3.2 °C 35.3 °F /  1.8 °C 30.34in /  1027.3hPa Calm   1mph /  1.6km/h 91% 0.00in /  0mm 77 W/m2
08:34 38 °F /  3.3 °C 35.6 °F /  2 °C 30.35in /  1027.7hPa Calm   1mph /  1.6km/h 91% 0.00in /  0mm 81 W/m2
08:39 38.4 °F /  3.6 °C 36.2 °F /  2.3 °C 30.35in /  1027.7hPa Calm     91.7% 0.00in /  0mm 84 W/m2
08:44 38.8 °F /  3.8 °C 36.7 °F /  2.6 °C 30.34in /  1027.3hPa Calm     92% 0.00in /  0mm 88 W/m2
08:49 39.4 °F /  4.1 °C 37.2 °F /  2.9 °C 30.35in /  1027.7hPa Calm     92% 0.00in /  0mm 95 W/m2
08:54 39.9 °F /  4.4 °C 37.8 °F /  3.2 °C 30.35in /  1027.7hPa Calm     92% 0.00in /  0mm 98 W/m2
08:59 40.4 °F /  4.7 °C 38.2 °F /  3.4 °C 30.35in /  1027.7hPa Calm     92% 0.00in /  0mm 98 W/m2
09:04 40.7 °F /  4.8 °C 38.6 °F /  3.7 °C 30.35in /  1027.7hPa Calm     92% 0.00in /  0mm 97 W/m2
09:09 41.1 °F /  5.1 °C 39 °F /  3.9 °C 30.35in /  1027.7hPa Calm     92% 0.00in /  0mm 97 W/m2
09:14 41.4 °F /  5.2 °C 39.3 °F /  4.1 °C 30.35in /  1027.7hPa Calm     92% 0.00in /  0mm 97 W/m2
09:19 41.7 °F /  5.4 °C 39.6 °F /  4.2 °C 30.35in /  1027.7hPa Calm     92% 0.00in /  0mm 111 W/m2
09:24 42.1 °F /  5.6 °C 39.9 °F /  4.4 °C 30.35in /  1027.7hPa Calm     91.9% 0.00in /  0mm 118 W/m2
09:29 42.4 °F /  5.8 °C 40.1 °F /  4.5 °C 30.35in /  1027.7hPa Calm     91.3% 0.00in /  0mm 123 W/m2
09:34 42.8 °F /  6 °C 40.4 °F /  4.7 °C 30.34in /  1027.3hPa Calm     91% 0.00in /  0mm 130 W/m2
09:39 43.2 °F /  6.2 °C 40.7 °F /  4.8 °C 30.34in /  1027.3hPa Calm     91% 0.00in /  0mm 132 W/m2
09:44 43.4 °F /  6.3 °C 40.9 °F /  4.9 °C 30.34in /  1027.3hPa Calm     90.5% 0.00in /  0mm 134 W/m2
09:49 43.8 °F /  6.6 °C 41 °F /  5 °C 30.35in /  1027.7hPa Calm     90% 0.00in /  0mm 132 W/m2
09:54 44.1 °F /  6.7 °C 41.4 °F /  5.2 °C 30.35in /  1027.7hPa Calm     90% 0.00in /  0mm 132 W/m2
09:59 44.6 °F /  7 °C 41.8 °F /  5.4 °C 30.35in /  1027.7hPa Calm     90% 0.00in /  0mm 134 W/m2
10:04 45 °F /  7.2 °C 42.3 °F /  5.7 °C 30.35in /  1027.7hPa Calm     90% 0.00in /  0mm 125 W/m2
10:09 45.4 °F /  7.4 °C 42.4 °F /  5.8 °C 30.35in /  1027.7hPa Calm     89.2% 0.00in /  0mm 111 W/m2
10:14 45.7 °F /  7.6 °C 42.6 °F /  5.9 °C 30.35in /  1027.7hPa Calm     89% 0.00in /  0mm 113 W/m2
10:19 46 °F /  7.8 °C 42.9 °F /  6.1 °C 30.34in /  1027.3hPa SSW 0.2mph /  0.3km/h 2mph /  3.2km/h 89% 0.00in /  0mm 111 W/m2
10:24 46.2 °F /  7.9 °C 43.1 °F /  6.2 °C 30.35in /  1027.7hPa SSW 0.3mph /  0.5km/h 2mph /  3.2km/h 88.8% 0.00in /  0mm 98 W/m2
10:29 46.4 °F /  8 °C 43.3 °F /  6.3 °C 30.35in /  1027.7hPa Calm   2mph /  3.2km/h 88.6% 0.00in /  0mm 84 W/m2
10:32 46.5 °F /  8.1 °C 43.2 °F /  6.2 °C 30.35in /  1027.7hPa Calm   2mph /  3.2km/h 88% 0.00in /  0mm 90 W/m2
11:00 47.7 °F /  8.7 °C 44.3 °F /  6.8 °C 30.33in /  1027hPa Calm   2mph /  3.2km/h 88% 0.00in /  0mm 85 W/m2
11:30 48.4 °F /  9.1 °C 45 °F /  7.2 °C 30.32in /  1026.6hPa Calm   2mph /  3.2km/h 88% 0.00in /  0mm 47 W/m2
12:04 48.6 °F /  9.2 °C 45.2 °F /  7.3 °C 30.32in /  1026.6hPa Calm   2mph /  3.2km/h 88% 0.00in /  0mm 69 W/m2
12:09 48.6 °F /  9.2 °C 45.3 °F /  7.4 °C 30.32in /  1026.6hPa Calm     88% 0.00in /  0mm 69 W/m2
12:14 48.7 °F /  9.3 °C 45.4 °F /  7.4 °C 30.32in /  1026.6hPa Calm     88% 0.00in /  0mm 69 W/m2
12:19 48.9 °F /  9.4 °C 45.5 °F /  7.5 °C 30.32in /  1026.6hPa Calm     88% 0.00in /  0mm 60 W/m2
12:24 49 °F /  9.4 °C 45.7 °F /  7.6 °C 30.32in /  1026.6hPa Calm     88.5% 0.00in /  0mm 49 W/m2
12:29 49.1 °F /  9.5 °C 45.7 °F /  7.6 °C 30.31in /  1026.3hPa Calm     88% 0.00in /  0mm 58 W/m2
12:34 49.2 °F /  9.6 °C 45.8 °F /  7.7 °C 30.31in /  1026.3hPa Calm     88% 0.00in /  0mm 60 W/m2
12:39 49.3 °F /  9.6 °C 45.9 °F /  7.7 °C 30.32in /  1026.6hPa Calm     88% 0.00in /  0mm 90 W/m2
12:44 49.4 °F /  9.7 °C 46 °F /  7.8 °C 30.32in /  1026.6hPa Calm     88.2% 0.00in /  0mm 90 W/m2
12:49 49.5 °F /  9.7 °C 46.1 °F /  7.8 °C 30.31in /  1026.3hPa Calm     88% 0.00in /  0mm 88 W/m2
12:54 49.6 °F /  9.8 °C 46.7 °F /  8.2 °C 30.31in /  1026.3hPa Calm     89.6% 0.00in /  0mm 91 W/m2
12:59 49.7 °F /  9.8 °C 46.7 °F /  8.2 °C 30.30in /  1026hPa Calm   1mph /  1.6km/h 89.3% 0.00in /  0mm 88 W/m2
13:04 49.9 °F /  9.9 °C 46.8 °F /  8.2 °C 30.31in /  1026.3hPa Calm   1mph /  1.6km/h 89% 0.00in /  0mm 83 W/m2
13:09 50 °F /  10 °C 46.6 °F /  8.1 °C 30.31in /  1026.3hPa Calm   1mph /  1.6km/h 88.3% 0.00in /  0mm 65 W/m2
13:14 50 °F /  10 °C 46.6 °F /  8.1 °C 30.31in /  1026.3hPa Calm   1mph /  1.6km/h 88% 0.00in /  0mm 63 W/m2
13:19 50 °F /  10 °C 46.6 °F /  8.1 °C 30.31in /  1026.3hPa Calm   1mph /  1.6km/h 88% 0.00in /  0mm 63 W/m2
13:24 50 °F /  10 °C 46.6 °F /  8.1 °C 30.31in /  1026.3hPa Calm   1mph /  1.6km/h 88% 0.00in /  0mm 60 W/m2
13:29 50.1 °F /  10.1 °C 46.7 °F /  8.2 °C 30.31in /  1026.3hPa Calm   1mph /  1.6km/h 88% 0.00in /  0mm 47 W/m2
13:34 50.1 °F /  10.1 °C 46.6 °F /  8.1 °C 30.31in /  1026.3hPa Calm   1mph /  1.6km/h 87.9% 0.00in /  0mm 47 W/m2
13:39 50.1 °F /  10.1 °C 46.5 °F /  8.1 °C 30.31in /  1026.3hPa Calm     87.2% 0.00in /  0mm 54 W/m2
13:44 50.1 °F /  10.1 °C 46.5 °F /  8.1 °C 30.31in /  1026.3hPa Calm     87.3% 0.00in /  0mm 56 W/m2
13:49 50.2 °F /  10.1 °C 46.8 °F /  8.2 °C 30.31in /  1026.3hPa Calm     88% 0.00in /  0mm 53 W/m2
13:54 50.2 °F /  10.1 °C 46.8 °F /  8.2 °C 30.31in /  1026.3hPa Calm     88% 0.00in /  0mm 72 W/m2
13:59 50.3 °F /  10.2 °C 46.9 °F /  8.3 °C 30.30in /  1026hPa Calm     88% 0.00in /  0mm 74 W/m2
14:04 50.3 °F /  10.2 °C 46.9 °F /  8.3 °C 30.31in /  1026.3hPa Calm     88% 0.00in /  0mm 56 W/m2
14:09 50.3 °F /  10.2 °C 46.9 °F /  8.3 °C 30.31in /  1026.3hPa Calm     88% 0.00in /  0mm 63 W/m2
14:14 50.4 °F /  10.2 °C 47.1 °F /  8.4 °C 30.30in /  1026hPa Calm     88.4% 0.00in /  0mm 69 W/m2
14:19 50.5 °F /  10.3 °C 47.4 °F /  8.6 °C 30.30in /  1026hPa Calm     89% 0.00in /  0mm 69 W/m2
14:24 50.5 °F /  10.3 °C 47.4 °F /  8.6 °C 30.30in /  1026hPa Calm     89% 0.00in /  0mm 56 W/m2
14:29 50.5 °F /  10.3 °C 47.4 °F /  8.6 °C 30.30in /  1026hPa Calm     89% 0.00in /  0mm 44 W/m2
14:34 50.5 °F /  10.3 °C 47.4 °F /  8.6 °C 30.30in /  1026hPa Calm     89% 0.00in /  0mm 37 W/m2
14:39 50.5 °F /  10.3 °C 47.4 °F /  8.6 °C 30.30in /  1026hPa Calm     89% 0.00in /  0mm 35 W/m2
14:44 50.5 °F /  10.3 °C 47.4 °F /  8.6 °C 30.30in /  1026hPa Calm     89% 0.00in /  0mm 42 W/m2
14:49 50.5 °F /  10.3 °C 47.3 °F /  8.5 °C 30.30in /  1026hPa Calm     89% 0.00in /  0mm 39 W/m2
14:54 50.4 °F /  10.2 °C 47.4 °F /  8.6 °C 30.30in /  1026hPa Calm     89.3% 0.00in /  0mm 23 W/m2
14:59 50.4 °F /  10.2 °C 47.6 °F /  8.7 °C 30.30in /  1026hPa Calm     90% 0.00in /  0mm 32 W/m2
15:04 50.4 °F /  10.2 °C 47.6 °F /  8.7 °C 30.30in /  1026hPa Calm     90% 0.00in /  0mm 33 W/m2
15:09 50.3 °F /  10.2 °C 47.5 °F /  8.6 °C 30.30in /  1026hPa Calm     90% 0.00in /  0mm 35 W/m2
15:14 50.3 °F /  10.2 °C 47.5 °F /  8.6 °C 30.30in /  1026hPa Calm     90% 0.00in /  0mm 35 W/m2
15:19 50.4 °F /  10.2 °C 47.8 °F /  8.8 °C 30.30in /  1026hPa Calm     90.7% 0.00in /  0mm 25 W/m2
15:24 50.4 °F /  10.2 °C 47.9 °F /  8.8 °C 30.30in /  1026hPa Calm     91% 0.00in /  0mm 14 W/m2
15:29 50.5 °F /  10.3 °C 47.9 °F /  8.8 °C 30.30in /  1026hPa Calm     91% 0.00in /  0mm 12 W/m2
15:34 50.5 °F /  10.3 °C 48 °F /  8.9 °C 30.30in /  1026hPa Calm     91% 0.00in /  0mm 12 W/m2
15:39 50.7 °F /  10.4 °C 48.1 °F /  8.9 °C 30.30in /  1026hPa Calm     91% 0.00in /  0mm 11 W/m2
15:44 50.9 °F /  10.5 °C 48.4 °F /  9.1 °C 30.30in /  1026hPa Calm     91% 0.01in /  0.25mm 9 W/m2
15:49 51.3 °F /  10.7 °C 48.7 °F /  9.3 °C 30.30in /  1026hPa Calm     91% 0.02in /  0.51mm 9 W/m2
15:54 51.6 °F /  10.9 °C 49.1 °F /  9.5 °C 30.30in /  1026hPa Calm     91% 0.02in /  0.51mm 11 W/m2
15:59 51.9 °F /  11.1 °C 49.4 °F /  9.7 °C 30.30in /  1026hPa Calm     91% 0.02in /  0.51mm 11 W/m2
16:04 52.3 °F /  11.3 °C 49.7 °F /  9.8 °C 30.30in /  1026hPa Calm     91% 0.02in /  0.51mm 0 W/m2
16:09 52.3 °F /  11.3 °C 49.8 °F /  9.9 °C 30.30in /  1026hPa Calm   1mph /  1.6km/h 90.8% 0.02in /  0.51mm 0 W/m2
16:14 52.5 °F /  11.4 °C 49.7 °F /  9.8 °C 30.30in /  1026hPa Calm   1mph /  1.6km/h 90.2% 0.02in /  0.51mm 0 W/m2
16:19 52.6 °F /  11.4 °C 49.8 °F /  9.9 °C 30.30in /  1026hPa Calm   1mph /  1.6km/h 90% 0.02in /  0.51mm 0 W/m2
16:24 52.6 °F /  11.4 °C 49.8 °F /  9.9 °C 30.30in /  1026hPa Calm   1mph /  1.6km/h 90% 0.02in /  0.51mm 0 W/m2
16:29 52.6 °F /  11.4 °C 49.8 °F /  9.9 °C 30.30in /  1026hPa Calm   1mph /  1.6km/h 90% 0.02in /  0.51mm 0 W/m2
16:34 52.6 °F /  11.4 °C 49.7 °F /  9.8 °C 30.30in /  1026hPa Calm   1mph /  1.6km/h 90% 0.02in /  0.51mm 0 W/m2
16:39 52.6 °F /  11.4 °C 49.8 °F /  9.9 °C 30.30in /  1026hPa Calm     90.2% 0.02in /  0.51mm 0 W/m2
16:44 52.7 °F /  11.5 °C 50.1 °F /  10.1 °C 30.30in /  1026hPa Calm     90.7% 0.02in /  0.51mm 0 W/m2
16:49 52.9 °F /  11.6 °C 50.4 °F /  10.2 °C 30.31in /  1026.3hPa Calm     91% 0.02in /  0.51mm 0 W/m2
16:54 53 °F /  11.7 °C 50.4 °F /  10.2 °C 30.31in /  1026.3hPa Calm     90.7% 0.02in /  0.51mm 0 W/m2
16:59 53 °F /  11.7 °C 50.2 °F /  10.1 °C 30.30in /  1026hPa SSW 0.1mph /  0.2km/h 1mph /  1.6km/h 90% 0.02in /  0.51mm 0 W/m2
17:04 53.1 °F /  11.7 °C 50.6 °F /  10.3 °C 30.30in /  1026hPa SSW 0.7mph /  1.1km/h 3mph /  4.8km/h 90.9% 0.02in /  0.51mm 0 W/m2
17:09 53.4 °F /  11.9 °C 50.9 °F /  10.5 °C 30.30in /  1026hPa SSW 0.7mph /  1.1km/h 4mph /  6.4km/h 91% 0.00in /  0mm 0 W/m2
17:14 53.7 °F /  12.1 °C 51.1 °F /  10.6 °C 30.30in /  1026hPa SSW 0.4mph /  0.6km/h 4mph /  6.4km/h 91% 0.00in /  0mm 0 W/m2
17:19 53.9 °F /  12.2 °C 51.3 °F /  10.7 °C 30.30in /  1026hPa Calm   4mph /  6.4km/h 91% 0.00in /  0mm 0 W/m2
17:24 54.1 °F /  12.3 °C 51.3 °F /  10.7 °C 30.30in /  1026hPa SSW 0.3mph /  0.5km/h 4mph /  6.4km/h 90.4% 0.00in /  0mm 0 W/m2
17:29 54.2 °F /  12.3 °C 51.4 °F /  10.8 °C 30.30in /  1026hPa SSW 0.4mph /  0.6km/h 4mph /  6.4km/h 90% 0.00in /  0mm 0 W/m2
17:34 54.4 °F /  12.4 °C 51.5 °F /  10.8 °C 30.30in /  1026hPa SSW 0.1mph /  0.2km/h 4mph /  6.4km/h 90% 0.00in /  0mm 0 W/m2
17:39 54.4 °F /  12.4 °C 51.5 °F /  10.8 °C 30.30in /  1026hPa SSW 0.2mph /  0.3km/h 2mph /  3.2km/h 90% 0.00in /  0mm 0 W/m2
17:44 54.5 °F /  12.5 °C 51.5 °F /  10.8 °C 30.30in /  1026hPa Calm   2mph /  3.2km/h 89.6% 0.00in /  0mm 0 W/m2
17:49 54.5 °F /  12.5 °C 51.3 °F /  10.7 °C 30.30in /  1026hPa SSW 0.5mph /  0.8km/h 4mph /  6.4km/h 89% 0.00in /  0mm 0 W/m2
17:54 54.5 °F /  12.5 °C 51.3 °F /  10.7 °C 30.30in /  1026hPa SSW 0.4mph /  0.6km/h 4mph /  6.4km/h 89% 0.00in /  0mm 0 W/m2
17:59 54.6 °F /  12.6 °C 51.4 °F /  10.8 °C 30.30in /  1026hPa SSW 0.3mph /  0.5km/h 4mph /  6.4km/h 89% 0.00in /  0mm 0 W/m2
18:04 54.6 °F /  12.6 °C 51.5 °F /  10.8 °C 30.30in /  1026hPa South 1.2mph /  1.9km/h 5mph /  8km/h 89% 0.00in /  0mm 0 W/m2
18:09 54.8 °F /  12.7 °C 51.6 °F /  10.9 °C 30.30in /  1026hPa South 0.2mph /  0.3km/h 5mph /  8km/h 89% 0.00in /  0mm 0 W/m2
18:14 54.8 °F /  12.7 °C 51.6 °F /  10.9 °C 30.29in /  1025.6hPa South 0.4mph /  0.6km/h 5mph /  8km/h 89% 0.00in /  0mm 0 W/m2
18:19 54.8 °F /  12.7 °C 51.7 °F /  10.9 °C 30.29in /  1025.6hPa South 0.4mph /  0.6km/h 5mph /  8km/h 89% 0.00in /  0mm 0 W/m2
18:24 54.9 °F /  12.7 °C 51.7 °F /  10.9 °C 30.30in /  1026hPa South 0.9mph /  1.4km/h 5mph /  8km/h 89% 0.00in /  0mm 0 W/m2
18:29 54.9 °F /  12.7 °C 51.5 °F /  10.8 °C 30.30in /  1026hPa South 0.6mph /  1km/h 5mph /  8km/h 88.4% 0.00in /  0mm 0 W/m2
18:34 54.9 °F /  12.7 °C 51.7 °F /  10.9 °C 30.29in /  1025.6hPa South 2mph /  3.2km/h 5mph /  8km/h 88.8% 0.00in /  0mm 0 W/m2
18:39 55 °F /  12.8 °C 51.8 °F /  11 °C 30.29in /  1025.6hPa South 0.8mph /  1.3km/h 5mph /  8km/h 89% 0.00in /  0mm 0 W/m2
18:44 55.1 °F /  12.8 °C 51.8 °F /  11 °C 30.29in /  1025.6hPa South 0.7mph /  1.1km/h 5mph /  8km/h 88.8% 0.00in /  0mm 0 W/m2
18:49 55.1 °F /  12.8 °C 51.9 °F /  11.1 °C 30.29in /  1025.6hPa South 1mph /  1.6km/h 5mph /  8km/h 89% 0.00in /  0mm 0 W/m2
18:54 55.1 °F /  12.8 °C 51.8 °F /  11 °C 30.28in /  1025.3hPa South 1.1mph /  1.8km/h 5mph /  8km/h 88.6% 0.00in /  0mm 0 W/m2
18:59 55.2 °F /  12.9 °C 51.9 °F /  11.1 °C 30.28in /  1025.3hPa SSE 1.8mph /  2.9km/h 7mph /  11.3km/h 88.5% 0.00in /  0mm 0 W/m2
19:04 55.2 °F /  12.9 °C 52 °F /  11.1 °C 30.29in /  1025.6hPa South 0.5mph /  0.8km/h 7mph /  11.3km/h 89% 0.00in /  0mm 0 W/m2
19:09 55.2 °F /  12.9 °C 52 °F /  11.1 °C 30.29in /  1025.6hPa South 0.8mph /  1.3km/h 6mph /  9.7km/h 88.8% 0.00in /  0mm 0 W/m2
19:14 55.2 °F /  12.9 °C 52 °F /  11.1 °C 30.29in /  1025.6hPa South 0.6mph /  1km/h 6mph /  9.7km/h 88.8% 0.00in /  0mm 0 W/m2
19:19 55.2 °F /  12.9 °C 52 °F /  11.1 °C 30.29in /  1025.6hPa South 0.8mph /  1.3km/h 6mph /  9.7km/h 89% 0.00in /  0mm 0 W/m2
19:24 55.2 °F /  12.9 °C 52.1 °F /  11.2 °C 30.29in /  1025.6hPa South 0.8mph /  1.3km/h 6mph /  9.7km/h 89% 0.00in /  0mm 0 W/m2
19:29 55.2 °F /  12.9 °C 52 °F /  11.1 °C 30.30in /  1026hPa South 1mph /  1.6km/h 6mph /  9.7km/h 89% 0.00in /  0mm 0 W/m2
19:34 55.2 °F /  12.9 °C 52 °F /  11.1 °C 30.29in /  1025.6hPa South 0.8mph /  1.3km/h 6mph /  9.7km/h 89% 0.00in /  0mm 0 W/m2
19:39 55.1 °F /  12.8 °C 51.9 °F /  11.1 °C 30.29in /  1025.6hPa South 0.7mph /  1.1km/h 4mph /  6.4km/h 89% 0.00in /  0mm 0 W/m2
19:44 55.1 °F /  12.8 °C 51.9 °F /  11.1 °C 30.29in /  1025.6hPa South 0.8mph /  1.3km/h 4mph /  6.4km/h 89% 0.00in /  0mm 0 W/m2
19:49 55.1 °F /  12.8 °C 51.9 °F /  11.1 °C 30.29in /  1025.6hPa South 0.6mph /  1km/h 4mph /  6.4km/h 89% 0.00in /  0mm 0 W/m2
19:54 55 °F /  12.8 °C 51.8 °F /  11 °C 30.29in /  1025.6hPa South 0.6mph /  1km/h 4mph /  6.4km/h 89% 0.00in /  0mm 0 W/m2
19:59 55 °F /  12.8 °C 51.9 °F /  11.1 °C 30.29in /  1025.6hPa South 1.2mph /  1.9km/h 4mph /  6.4km/h 89.4% 0.00in /  0mm 0 W/m2
20:00 55 °F /  12.8 °C 52.1 °F /  11.2 °C 30.29in /  1025.6hPa Calm   4mph /  6.4km/h 90% 0.00in /  0mm 0 W/m2
20:09 55.1 °F /  12.8 °C 52.2 °F /  11.2 °C 30.29in /  1025.6hPa South 1.7mph /  2.7km/h 6mph /  9.7km/h 90% 0.00in /  0mm 0 W/m2
20:14 55.1 °F /  12.8 °C 52.2 °F /  11.2 °C 30.29in /  1025.6hPa South 0.6mph /  1km/h 6mph /  9.7km/h 90% 0.00in /  0mm 0 W/m2
20:19 55 °F /  12.8 °C 52.2 °F /  11.2 °C 30.30in /  1026hPa South 1.4mph /  2.3km/h 6mph /  9.7km/h 90% 0.00in /  0mm 0 W/m2
20:24 55 °F /  12.8 °C 52.1 °F /  11.2 °C 30.30in /  1026hPa South 0.9mph /  1.4km/h 6mph /  9.7km/h 90% 0.00in /  0mm 0 W/m2
20:29 55 °F /  12.8 °C 52.4 °F /  11.3 °C 30.30in /  1026hPa South 0.4mph /  0.6km/h 6mph /  9.7km/h 90.9% 0.00in /  0mm 0 W/m2
20:34 55 °F /  12.8 °C 52.2 °F /  11.2 °C 30.30in /  1026hPa South 0.8mph /  1.3km/h 6mph /  9.7km/h 90.3% 0.00in /  0mm 0 W/m2
20:39 55 °F /  12.8 °C 52.4 °F /  11.3 °C 30.30in /  1026hPa SSE 0.8mph /  1.3km/h 4mph /  6.4km/h 91% 0.00in /  0mm 0 W/m2
20:44 54.9 °F /  12.7 °C 52.4 °F /  11.3 °C 30.29in /  1025.6hPa SSE 0.7mph /  1.1km/h 4mph /  6.4km/h 91% 0.00in /  0mm 0 W/m2
20:49 54.9 °F /  12.7 °C 52.3 °F /  11.3 °C 30.29in /  1025.6hPa SSE 1.4mph /  2.3km/h 6mph /  9.7km/h 91% 0.00in /  0mm 0 W/m2
20:54 54.9 °F /  12.7 °C 52.3 °F /  11.3 °C 30.29in /  1025.6hPa South 2.7mph /  4.3km/h 11mph /  17.7km/h 91% 0.00in /  0mm 0 W/m2
20:59 55 °F /  12.8 °C 52.4 °F /  11.3 °C 30.29in /  1025.6hPa South 1.2mph /  1.9km/h 11mph /  17.7km/h 91% 0.00in /  0mm 0 W/m2
21:04 54.9 °F /  12.7 °C 52.3 °F /  11.3 °C 30.29in /  1025.6hPa South 0.6mph /  1km/h 11mph /  17.7km/h 91% 0.01in /  0.25mm 0 W/m2
21:09 54.9 °F /  12.7 °C 52.3 °F /  11.3 °C 30.28in /  1025.3hPa South 1.2mph /  1.9km/h 9mph /  14.5km/h 91% 0.02in /  0.51mm 0 W/m2
21:14 54.8 °F /  12.7 °C 52.4 °F /  11.3 °C 30.28in /  1025.3hPa South 0.6mph /  1km/h 9mph /  14.5km/h 91.6% 0.02in /  0.51mm 0 W/m2
21:19 54.7 °F /  12.6 °C 52.5 °F /  11.4 °C 30.28in /  1025.3hPa South 0.5mph /  0.8km/h 9mph /  14.5km/h 92% 0.02in /  0.51mm 0 W/m2
21:24 54.6 °F /  12.6 °C 52.4 °F /  11.3 °C 30.28in /  1025.3hPa South 1mph /  1.6km/h 9mph /  14.5km/h 92% 0.02in /  0.51mm 0 W/m2
21:29 54.6 °F /  12.6 °C 52.3 °F /  11.3 °C 30.28in /  1025.3hPa South 0.4mph /  0.6km/h 9mph /  14.5km/h 92% 0.02in /  0.51mm 0 W/m2
21:30 54.5 °F /  12.5 °C 52.2 °F /  11.2 °C 30.28in /  1025.3hPa Calm   9mph /  14.5km/h 92% 0.02in /  0.51mm 0 W/m2
22:00 54.4 °F /  12.4 °C 52.4 °F /  11.3 °C 30.27in /  1024.9hPa Calm   4mph /  6.4km/h 93% 0.05in /  1.27mm 0 W/m2
22:30 54.3 °F /  12.4 °C 52.6 °F /  11.4 °C 30.26in /  1024.6hPa Calm   5mph /  8km/h 94% 0.07in /  1.78mm 0 W/m2
23:04 54.2 °F /  12.3 °C 52.5 °F /  11.4 °C 30.26in /  1024.6hPa Calm   5mph /  8km/h 94% 0.08in /  2.03mm 0 W/m2
23:09 54.2 °F /  12.3 °C 52.5 °F /  11.4 °C 30.26in /  1024.6hPa South 0.2mph /  0.3km/h 2mph /  3.2km/h 94% 0.08in /  2.03mm 0 W/m2
23:14 54.2 °F /  12.3 °C 52.5 °F /  11.4 °C 30.26in /  1024.6hPa South 0.4mph /  0.6km/h 3mph /  4.8km/h 94% 0.08in /  2.03mm 0 W/m2
23:19 54.2 °F /  12.3 °C 52.8 °F /  11.6 °C 30.26in /  1024.6hPa South 0.2mph /  0.3km/h 3mph /  4.8km/h 94.9% 0.08in /  2.03mm 0 W/m2
23:24 54.2 °F /  12.3 °C 52.5 °F /  11.4 °C 30.25in /  1024.3hPa South 0.2mph /  0.3km/h 3mph /  4.8km/h 94% 0.08in /  2.03mm 0 W/m2
23:29 54.2 °F /  12.3 °C 52.6 °F /  11.4 °C 30.25in /  1024.3hPa South 0.2mph /  0.3km/h 4mph /  6.4km/h 94.2% 0.08in /  2.03mm 0 W/m2
23:34 54.3 °F /  12.4 °C 52.9 °F /  11.6 °C 30.25in /  1024.3hPa South 0.4mph /  0.6km/h 4mph /  6.4km/h 95% 0.08in /  2.03mm 0 W/m2
23:39 54.3 °F /  12.4 °C 52.9 °F /  11.6 °C 30.25in /  1024.3hPa South 0.5mph /  0.8km/h 3mph /  4.8km/h 95% 0.04in /  1.02mm 0 W/m2
23:44 54.3 °F /  12.4 °C 52.9 °F /  11.6 °C 30.25in /  1024.3hPa South 0.2mph /  0.3km/h 3mph /  4.8km/h 95% 0.05in /  1.27mm 0 W/m2
23:49 54.3 °F /  12.4 °C 52.9 °F /  11.6 °C 30.25in /  1024.3hPa SSE 0.1mph /  0.2km/h 3mph /  4.8km/h 95% 0.06in /  1.52mm 0 W/m2
23:54 54.3 °F /  12.4 °C 52.9 °F /  11.6 °C 30.25in /  1024.3hPa Calm   3mph /  4.8km/h 95% 0.07in /  1.78mm 0 W/m2
23:59 54.4 °F /  12.4 °C 53 °F /  11.7 °C 30.25in /  1024.3hPa SSE 0.7mph /  1.1km/h 3mph /  4.8km/h 95% 0.08in /  2.03mm 0 W/m2
Hartford County Weather
Compliments of Weather Underground - 2 mb